Time;durP1;ratioP1;P1;durP2;ratioP2;P2;SDS_P1;SDS_P2;PMS_P1;PMS_P2;Temp;Humidity;BMP_temperature;BMP_pressure;BME280_temperature;BME280_humidity;BME280_pressure;Samples;Min_cycle;Max_cycle;Signal;HPM_P1;HPM_P2
2023/03/20 00:01:12;;;;;;;36.20;20.07;;;;;;;;;;5010783;28;20798;-67
2023/03/20 00:03:40;;;;;;;41.33;20.70;;;;;;;;;;4994620;28;21003;-67
2023/03/20 00:06:12;;;;;;;41.20;21.60;;;;;;;;;;4994973;28;20489;-67
2023/03/20 00:08:41;;;;;;;41.77;21.50;;;;;;;;;;4996756;28;20474;-67
2023/03/20 00:11:14;;;;;;;40.00;19.80;;;;;;;;;;4995214;28;20521;-67
2023/03/20 00:13:42;;;;;;;36.13;18.13;;;;;;;;;;4995255;28;20424;-67
2023/03/20 00:16:09;;;;;;;39.90;20.87;;;;;;;;;;4994732;28;20485;-68
2023/03/20 00:18:37;;;;;;;40.63;20.97;;;;;;;;;;4994552;28;20477;-67
2023/03/20 00:21:04;;;;;;;36.03;19.90;;;;;;;;;;4994531;28;20449;-66
2023/03/20 00:23:32;;;;;;;41.30;21.53;;;;;;;;;;4994726;28;20479;-66
2023/03/20 00:26:00;;;;;;;41.60;20.67;;;;;;;;;;4994808;28;20508;-66
2023/03/20 00:28:35;;;;;;;38.40;20.87;;;;;;;;;;4994417;28;20451;-66
2023/03/20 00:31:02;;;;;;;40.80;20.90;;;;;;;;;;4994848;28;20762;-67
2023/03/20 00:33:30;;;;;;;39.50;22.70;;;;;;;;;;4994176;28;20445;-66
2023/03/20 00:35:58;;;;;;;42.07;21.60;;;;;;;;;;4993400;28;21075;-66
2023/03/20 00:38:25;;;;;;;41.30;22.47;;;;;;;;;;4994788;28;20444;-66
2023/03/20 00:40:52;;;;;;;47.60;23.20;;;;;;;;;;4994215;28;20472;-66
2023/03/20 00:43:21;;;;;;;42.97;22.43;;;;;;;;;;4994802;28;20544;-66
2023/03/20 00:45:48;;;;;;;44.80;22.17;;;;;;;;;;4994202;28;20543;-66
2023/03/20 00:48:16;;;;;;;43.13;22.33;;;;;;;;;;4994016;28;20947;-66
2023/03/20 00:50:43;;;;;;;47.10;23.00;;;;;;;;;;4993901;28;20449;-66
2023/03/20 00:53:11;;;;;;;49.17;23.50;;;;;;;;;;4993878;28;20445;-66
2023/03/20 00:55:39;;;;;;;40.33;22.70;;;;;;;;;;4994044;28;20830;-66
2023/03/20 00:58:07;;;;;;;53.23;24.13;;;;;;;;;;4993969;28;20805;-66
2023/03/20 01:00:40;;;;;;;45.00;22.90;;;;;;;;;;4993389;28;20447;-67
2023/03/20 01:03:12;;;;;;;43.67;23.93;;;;;;;;;;4995650;28;20448;-66
2023/03/20 01:05:39;;;;;;;42.63;23.07;;;;;;;;;;4994478;28;20455;-66
2023/03/20 01:08:07;;;;;;;45.73;24.10;;;;;;;;;;4995523;28;20547;-66
2023/03/20 01:10:34;;;;;;;41.80;21.20;;;;;;;;;;4993256;28;20440;-67
2023/03/20 01:13:02;;;;;;;48.30;24.20;;;;;;;;;;4993138;28;20977;-66
2023/03/20 01:15:31;;;;;;;42.27;24.47;;;;;;;;;;4993173;28;20480;-66
2023/03/20 01:18:00;;;;;;;44.33;24.43;;;;;;;;;;4993315;28;20441;-67
2023/03/20 01:20:28;;;;;;;50.87;25.63;;;;;;;;;;4993622;28;20474;-66
2023/03/20 01:22:55;;;;;;;46.33;25.63;;;;;;;;;;4993162;28;20448;-66
2023/03/20 01:25:22;;;;;;;56.27;26.03;;;;;;;;;;4993124;28;20453;-66
2023/03/20 01:27:51;;;;;;;48.70;27.20;;;;;;;;;;4993270;28;20812;-66
2023/03/20 01:30:19;;;;;;;48.90;27.87;;;;;;;;;;4993050;28;21025;-66
2023/03/20 01:32:47;;;;;;;47.63;28.33;;;;;;;;;;4993185;28;20479;-66
2023/03/20 01:35:17;;;;;;;51.40;24.13;;;;;;;;;;4992888;28;20523;-67
2023/03/20 01:37:44;;;;;;;44.80;25.37;;;;;;;;;;4993444;28;20456;-66
2023/03/20 01:40:15;;;;;;;60.43;32.00;;;;;;;;;;4993646;28;20440;-66
2023/03/20 01:42:42;;;;;;;65.83;29.47;;;;;;;;;;4993580;28;20795;-66
2023/03/20 01:45:14;;;;;;;54.60;30.03;;;;;;;;;;4993616;28;20443;-66
2023/03/20 01:47:41;;;;;;;50.57;28.10;;;;;;;;;;4993978;28;20444;-66
2023/03/20 01:50:32;;;;;;;63.13;32.60;;;;;;;;;;4996484;28;20534;-66
2023/03/20 01:53:06;;;;;;;57.73;27.40;;;;;;;;;;4982512;28;20456;-66
2023/03/20 01:55:34;;;;;;;50.77;26.47;;;;;;;;;;4997363;28;20474;-66
2023/03/20 01:58:03;;;;;;;46.65;25.98;;;;;;;;;;4997570;28;20451;-66
2023/03/20 02:00:30;;;;;;;48.92;26.67;;;;;;;;;;4997322;28;20220;-66
2023/03/20 02:02:58;;;;;;;45.30;26.30;;;;;;;;;;4998976;28;20197;-66
2023/03/20 02:05:26;;;;;;;52.40;26.00;;;;;;;;;;4996724;28;20459;-66
2023/03/20 02:07:58;;;;;;;55.43;27.17;;;;;;;;;;4997008;28;21023;-66
2023/03/20 02:10:27;;;;;;;48.80;26.23;;;;;;;;;;4997301;28;20444;-66
2023/03/20 02:12:55;;;;;;;53.37;29.10;;;;;;;;;;4996822;28;20527;-66
2023/03/20 02:15:22;;;;;;;53.30;30.30;;;;;;;;;;4997313;28;20448;-67
2023/03/20 02:17:49;;;;;;;47.93;25.70;;;;;;;;;;4996866;28;20444;-66
2023/03/20 02:20:27;;;;;;;48.80;25.13;;;;;;;;;;4997232;28;20836;-66
2023/03/20 02:23:05;;;;;;;51.47;27.20;;;;;;;;;;4997087;28;20438;-65
2023/03/20 02:25:51;;;;;;;50.40;27.90;;;;;;;;;;4996525;28;20442;-66
2023/03/20 02:28:39;;;;;;;44.63;25.90;;;;;;;;;;4996307;28;20441;-66
2023/03/20 02:31:17;;;;;;;49.03;25.43;;;;;;;;;;4996697;28;20449;-66
2023/03/20 02:34:11;;;;;;;49.37;25.80;;;;;;;;;;4996847;28;20433;-66
2023/03/20 02:36:59;;;;;;;48.03;26.87;;;;;;;;;;4961526;28;20492;-66
2023/03/20 02:39:33;;;;;;;47.03;26.90;;;;;;;;;;4996493;28;20455;-66
2023/03/20 02:42:04;;;;;;;53.07;28.63;;;;;;;;;;4996693;28;20798;-66
2023/03/20 02:44:34;;;;;;;51.83;27.80;;;;;;;;;;4996384;28;20442;-66
2023/03/20 02:47:03;;;;;;;49.87;25.93;;;;;;;;;;4996599;28;20490;-66
2023/03/20 02:49:45;;;;;;;48.07;25.60;;;;;;;;;;4996308;28;20817;-66
2023/03/20 02:52:16;;;;;;;50.80;27.97;;;;;;;;;;4994302;28;20479;-66
2023/03/20 02:54:51;;;;;;;50.17;25.20;;;;;;;;;;4995888;28;20436;-66
2023/03/20 02:57:20;;;;;;;44.90;24.90;;;;;;;;;;4995871;28;20463;-66
2023/03/20 02:59:51;;;;;;;47.03;22.80;;;;;;;;;;4995910;28;20452;-66
2023/03/20 03:02:20;;;;;;;39.17;23.00;;;;;;;;;;4997444;28;20795;-66
2023/03/20 03:04:50;;;;;;;45.63;25.20;;;;;;;;;;4995922;28;20466;-67
2023/03/20 03:07:20;;;;;;;34.00;20.40;;;;;;;;;;4996233;28;20463;-66
2023/03/20 03:09:50;;;;;;;41.97;23.30;;;;;;;;;;4996978;28;20455;-66
2023/03/20 03:12:20;;;;;;;40.47;24.00;;;;;;;;;;4995938;28;20444;-66
2023/03/20 03:14:48;;;;;;;44.17;24.07;;;;;;;;;;4995507;28;20528;-66
2023/03/20 03:17:17;;;;;;;38.30;21.07;;;;;;;;;;4995353;28;20476;-66
2023/03/20 03:19:46;;;;;;;42.30;22.63;;;;;;;;;;4995637;28;20448;-66
2023/03/20 03:22:14;;;;;;;36.63;22.05;;;;;;;;;;4995444;28;20444;-66
2023/03/20 03:24:44;;;;;;;39.25;23.38;;;;;;;;;;4995672;28;20505;-66
2023/03/20 03:27:16;;;;;;;34.97;21.70;;;;;;;;;;4995615;28;20196;-66
2023/03/20 03:29:44;;;;;;;40.40;23.30;;;;;;;;;;4995225;28;20841;-66
2023/03/20 03:32:21;;;;;;;34.30;20.90;;;;;;;;;;4995095;28;20456;-66
2023/03/20 03:34:49;;;;;;;36.93;22.50;;;;;;;;;;4995125;28;20575;-66
2023/03/20 03:37:21;;;;;;;36.53;21.63;;;;;;;;;;4995796;28;20569;-66
2023/03/20 03:39:52;;;;;;;33.73;21.83;;;;;;;;;;4995402;28;20906;-66
2023/03/20 03:42:23;;;;;;;34.53;23.10;;;;;;;;;;4995073;28;20433;-66
2023/03/20 03:44:54;;;;;;;40.17;24.23;;;;;;;;;;4994974;28;20424;-66
2023/03/20 03:47:23;;;;;;;36.83;22.07;;;;;;;;;;4995016;28;20953;-66
2023/03/20 03:49:52;;;;;;;36.33;23.07;;;;;;;;;;4995072;28;20459;-66
2023/03/20 03:52:22;;;;;;;37.47;24.27;;;;;;;;;;4996158;28;20772;-66
2023/03/20 03:54:52;;;;;;;42.10;25.60;;;;;;;;;;4995198;28;20444;-66
2023/03/20 03:57:22;;;;;;;35.53;22.65;;;;;;;;;;4995348;28;20568;-66
2023/03/20 03:59:51;;;;;;;41.17;24.77;;;;;;;;;;4995354;28;20189;-66
2023/03/20 04:02:19;;;;;;;38.20;21.60;;;;;;;;;;4996564;28;20846;-66
2023/03/20 04:04:48;;;;;;;37.30;23.87;;;;;;;;;;4994724;28;20440;-66
2023/03/20 04:07:15;;;;;;;37.03;22.83;;;;;;;;;;4994660;28;20445;-66
2023/03/20 04:09:43;;;;;;;37.00;23.13;;;;;;;;;;4996189;28;20474;-66
2023/03/20 04:12:20;;;;;;;33.90;23.10;;;;;;;;;;4994132;28;20990;-66
2023/03/20 04:14:48;;;;;;;39.23;22.13;;;;;;;;;;4995025;28;20424;-65
2023/03/20 04:17:15;;;;;;;41.50;23.73;;;;;;;;;;4994916;28;20493;-66
2023/03/20 04:19:43;;;;;;;35.07;22.33;;;;;;;;;;4994538;28;20452;-67
2023/03/20 04:22:10;;;;;;;37.93;23.33;;;;;;;;;;4994373;28;20440;-66
2023/03/20 04:24:37;;;;;;;35.33;22.13;;;;;;;;;;4994567;28;20445;-66
2023/03/20 04:27:05;;;;;;;33.57;21.37;;;;;;;;;;4994634;28;20449;-66
2023/03/20 04:29:32;;;;;;;32.07;21.30;;;;;;;;;;4994310;28;20948;-66
2023/03/20 04:32:00;;;;;;;30.90;19.80;;;;;;;;;;4995283;28;20775;-67
2023/03/20 04:34:28;;;;;;;33.53;18.80;;;;;;;;;;5011972;28;20443;-67
2023/03/20 04:36:55;;;;;;;37.60;20.43;;;;;;;;;;5013256;28;21003;-67
2023/03/20 04:39:22;;;;;;;33.43;21.40;;;;;;;;;;5013829;28;20452;-66
2023/03/20 04:41:49;;;;;;;34.57;19.67;;;;;;;;;;5013383;28;20936;-68
2023/03/20 04:44:17;;;;;;;31.90;19.70;;;;;;;;;;5013286;28;20458;-65
2023/03/20 04:46:44;;;;;;;32.33;19.87;;;;;;;;;;5013852;28;20539;-66
2023/03/20 04:49:12;;;;;;;31.77;19.93;;;;;;;;;;5013307;28;20450;-66
2023/03/20 04:51:40;;;;;;;30.23;19.10;;;;;;;;;;5013873;28;20466;-66
2023/03/20 04:54:07;;;;;;;28.53;18.90;;;;;;;;;;5013242;28;20448;-66
2023/03/20 04:56:34;;;;;;;29.07;19.30;;;;;;;;;;5013310;28;20980;-66
2023/03/20 04:59:01;;;;;;;28.83;18.90;;;;;;;;;;5013545;28;20966;-66
2023/03/20 05:01:28;;;;;;;32.10;19.63;;;;;;;;;;5013674;28;20930;-66
2023/03/20 05:03:59;;;;;;;29.20;18.87;;;;;;;;;;5013264;28;20528;-67
2023/03/20 05:06:27;;;;;;;36.97;16.97;;;;;;;;;;5013966;28;20864;-66
2023/03/20 05:08:55;;;;;;;31.47;18.80;;;;;;;;;;5013510;28;20458;-66
2023/03/20 05:11:22;;;;;;;27.90;18.90;;;;;;;;;;5013386;28;20448;-66
2023/03/20 05:13:49;;;;;;;30.87;19.30;;;;;;;;;;5013047;28;20531;-67
2023/03/20 05:16:17;;;;;;;29.63;18.67;;;;;;;;;;5012967;28;20449;-67
2023/03/20 05:18:44;;;;;;;27.47;16.93;;;;;;;;;;5013134;28;20938;-71
2023/03/20 05:21:11;;;;;;;30.60;19.10;;;;;;;;;;5013362;28;20452;-74
2023/03/20 05:23:40;;;;;;;25.87;16.70;;;;;;;;;;5015730;28;20469;-68
2023/03/20 05:26:07;;;;;;;29.80;17.30;;;;;;;;;;5016878;28;20454;-68
2023/03/20 05:28:35;;;;;;;27.37;16.70;;;;;;;;;;5017432;28;20523;-67
2023/03/20 05:31:02;;;;;;;27.27;17.07;;;;;;;;;;5017024;28;20450;-67
2023/03/20 05:33:29;;;;;;;29.10;17.47;;;;;;;;;;5016994;28;20492;-68
2023/03/20 05:35:56;;;;;;;26.52;17.15;;;;;;;;;;5016951;28;20502;-68
2023/03/20 05:38:25;;;;;;;28.00;16.60;;;;;;;;;;5016858;28;20689;-68
2023/03/20 05:40:58;;;;;;;31.33;18.33;;;;;;;;;;5016790;28;20475;-68
2023/03/20 05:43:25;;;;;;;29.87;16.77;;;;;;;;;;5016886;28;20434;-68
2023/03/20 05:45:53;;;;;;;33.70;18.03;;;;;;;;;;5016801;28;20472;-68
2023/03/20 05:48:20;;;;;;;27.50;17.03;;;;;;;;;;5016853;28;20455;-67
2023/03/20 05:50:47;;;;;;;24.00;15.13;;;;;;;;;;5017105;28;20793;-68
2023/03/20 05:53:15;;;;;;;29.37;16.03;;;;;;;;;;5017383;28;20447;-67
2023/03/20 05:55:43;;;;;;;21.50;15.33;;;;;;;;;;5016889;28;20447;-67
2023/03/20 05:58:12;;;;;;;20.73;13.87;;;;;;;;;;5016898;28;20927;-67
2023/03/20 06:00:39;;;;;;;22.17;13.53;;;;;;;;;;5017000;28;20539;-67
2023/03/20 06:03:06;;;;;;;21.47;14.40;;;;;;;;;;5016932;28;20442;-68
2023/03/20 06:05:34;;;;;;;19.30;13.70;;;;;;;;;;5016261;28;20998;-68
2023/03/20 06:08:01;;;;;;;23.70;13.90;;;;;;;;;;5016405;28;20451;-67
2023/03/20 06:10:29;;;;;;;20.47;13.80;;;;;;;;;;5017062;28;20574;-67
2023/03/20 06:12:56;;;;;;;20.30;13.53;;;;;;;;;;5016854;28;20461;-67
2023/03/20 06:15:25;;;;;;;22.60;12.05;;;;;;;;;;5016702;28;20458;-67
2023/03/20 06:17:52;;;;;;;26.90;13.10;;;;;;;;;;5016772;28;20224;-67
2023/03/20 06:20:19;;;;;;;16.77;11.27;;;;;;;;;;5016676;28;20458;-67
2023/03/20 06:22:47;;;;;;;17.33;11.23;;;;;;;;;;5016206;28;20482;-68
2023/03/20 06:25:14;;;;;;;20.45;11.48;;;;;;;;;;5016642;28;20797;-67
2023/03/20 06:27:41;;;;;;;17.70;11.17;;;;;;;;;;5016687;28;20203;-67
2023/03/20 06:30:09;;;;;;;17.03;12.20;;;;;;;;;;5016336;28;20448;-67
2023/03/20 06:32:38;;;;;;;20.10;12.57;;;;;;;;;;5016227;28;20443;-67
2023/03/20 06:35:06;;;;;;;25.90;13.20;;;;;;;;;;5015220;28;20520;-67
2023/03/20 06:37:33;;;;;;;17.03;10.93;;;;;;;;;;5016073;28;20479;-67
2023/03/20 06:40:00;;;;;;;18.30;12.60;;;;;;;;;;5016250;28;20534;-67
2023/03/20 06:42:28;;;;;;;18.13;12.00;;;;;;;;;;5016035;28;20446;-68
2023/03/20 06:44:55;;;;;;;17.53;11.50;;;;;;;;;;5016034;28;20440;-67
2023/03/20 06:47:22;;;;;;;20.30;12.13;;;;;;;;;;5015522;28;20487;-67
2023/03/20 06:49:50;;;;;;;17.10;11.77;;;;;;;;;;5015666;28;20452;-67
2023/03/20 06:52:18;;;;;;;18.70;11.67;;;;;;;;;;5015977;28;20449;-67
2023/03/20 06:54:46;;;;;;;19.38;11.82;;;;;;;;;;5015551;28;20447;-67
2023/03/20 06:57:13;;;;;;;17.23;11.40;;;;;;;;;;5015743;28;20223;-67
2023/03/20 06:59:40;;;;;;;16.27;11.47;;;;;;;;;;5015778;28;20458;-67
2023/03/20 07:02:07;;;;;;;16.60;10.98;;;;;;;;;;5015851;28;20439;-67
2023/03/20 07:04:35;;;;;;;17.77;10.77;;;;;;;;;;5015517;28;20203;-67
2023/03/20 07:07:03;;;;;;;14.27;9.97;;;;;;;;;;5015479;28;20477;-67
2023/03/20 07:09:31;;;;;;;15.07;9.73;;;;;;;;;;5015912;28;20443;-67
2023/03/20 07:11:59;;;;;;;15.30;10.20;;;;;;;;;;5015657;28;20465;-67
2023/03/20 07:14:26;;;;;;;17.00;10.70;;;;;;;;;;5015494;28;20497;-67
2023/03/20 07:16:55;;;;;;;13.93;9.50;;;;;;;;;;5015357;28;20803;-67
2023/03/20 07:19:22;;;;;;;15.50;10.93;;;;;;;;;;5015104;28;20486;-67
2023/03/20 07:21:49;;;;;;;16.60;9.80;;;;;;;;;;5014967;28;20455;-67
2023/03/20 07:24:18;;;;;;;13.07;9.20;;;;;;;;;;5015424;28;20455;-67
2023/03/20 07:26:45;;;;;;;18.53;9.43;;;;;;;;;;5014963;28;20638;-67
2023/03/20 07:29:13;;;;;;;14.50;9.53;;;;;;;;;;5015656;28;20478;-67
2023/03/20 07:31:40;;;;;;;14.17;9.10;;;;;;;;;;5014830;28;20446;-67
2023/03/20 07:34:07;;;;;;;12.73;9.33;;;;;;;;;;5014874;28;20452;-67
2023/03/20 07:36:35;;;;;;;14.03;9.80;;;;;;;;;;5014862;28;20511;-67
2023/03/20 07:39:02;;;;;;;17.63;9.43;;;;;;;;;;5014774;28;20495;-67
2023/03/20 07:41:30;;;;;;;14.27;8.93;;;;;;;;;;5015222;28;20442;-67
2023/03/20 07:43:58;;;;;;;14.50;10.30;;;;;;;;;;5014699;28;20443;-67
2023/03/20 07:46:25;;;;;;;16.88;9.77;;;;;;;;;;5014541;28;20447;-68
2023/03/20 07:48:52;;;;;;;13.70;8.93;;;;;;;;;;5014954;28;20208;-67
2023/03/20 07:51:19;;;;;;;16.30;9.33;;;;;;;;;;5015148;28;20436;-68
2023/03/20 07:53:47;;;;;;;15.90;9.47;;;;;;;;;;5014811;28;20866;-68
2023/03/20 07:56:14;;;;;;;15.83;9.20;;;;;;;;;;5014812;28;20570;-67
2023/03/20 07:58:42;;;;;;;13.60;9.70;;;;;;;;;;5014593;28;20478;-67
2023/03/20 08:01:10;;;;;;;14.57;8.93;;;;;;;;;;5014365;28;20451;-67
2023/03/20 08:03:37;;;;;;;12.90;9.77;;;;;;;;;;5014228;28;20453;-67
2023/03/20 08:06:06;;;;;;;18.37;11.23;;;;;;;;;;5014345;28;20451;-67
2023/03/20 08:08:33;;;;;;;14.30;9.50;;;;;;;;;;5014575;28;20451;-69
2023/03/20 08:11:00;;;;;;;16.27;9.30;;;;;;;;;;5014216;28;20539;-69
2023/03/20 08:13:28;;;;;;;14.17;9.80;;;;;;;;;;5014093;28;20440;-68
2023/03/20 08:15:56;;;;;;;15.37;9.73;;;;;;;;;;5014072;28;20444;-68
2023/03/20 08:18:24;;;;;;;14.00;9.23;;;;;;;;;;5013823;28;20475;-69
2023/03/20 08:20:51;;;;;;;14.90;9.00;;;;;;;;;;5014466;28;20811;-67
2023/03/20 08:23:18;;;;;;;13.37;8.07;;;;;;;;;;5014293;28;20471;-67
2023/03/20 08:25:48;;;;;;;17.23;9.50;;;;;;;;;;5014252;28;20443;-67
2023/03/20 08:28:15;;;;;;;13.37;8.77;;;;;;;;;;5014373;28;20452;-69
2023/03/20 08:30:42;;;;;;;15.30;9.70;;;;;;;;;;5014169;28;20929;-68
2023/03/20 08:33:11;;;;;;;13.37;8.67;;;;;;;;;;5014047;28;20479;-69
2023/03/20 08:35:38;;;;;;;13.03;8.40;;;;;;;;;;5013681;28;20480;-68
2023/03/20 08:38:05;;;;;;;11.80;7.60;;;;;;;;;;5013769;28;20505;-67
2023/03/20 08:40:33;;;;;;;16.70;9.13;;;;;;;;;;5014175;28;20528;-67
2023/03/20 08:43:00;;;;;;;8.60;6.77;;;;;;;;;;5013913;28;20462;-67
2023/03/20 08:45:27;;;;;;;12.07;8.30;;;;;;;;;;5013971;28;20440;-67
2023/03/20 08:47:55;;;;;;;13.50;7.93;;;;;;;;;;5013365;28;20451;-66
2023/03/20 08:50:24;;;;;;;11.00;7.27;;;;;;;;;;5013968;28;20480;-67
2023/03/20 08:52:51;;;;;;;11.70;6.73;;;;;;;;;;5013557;28;20821;-67
2023/03/20 08:55:18;;;;;;;18.93;8.57;;;;;;;;;;5013786;28;20445;-67
2023/03/20 08:57:46;;;;;;;12.60;6.20;;;;;;;;;;5013336;28;20479;-66
2023/03/20 09:00:14;;;;;;;11.87;7.73;;;;;;;;;;5013379;28;20454;-67
2023/03/20 09:02:42;;;;;;;15.40;7.27;;;;;;;;;;5013371;28;20444;-67
2023/03/20 09:05:10;;;;;;;12.90;7.13;;;;;;;;;;5014112;28;20452;-67
2023/03/20 09:07:38;;;;;;;10.10;5.53;;;;;;;;;;5013468;28;20469;-67
2023/03/20 09:10:06;;;;;;;7.53;5.87;;;;;;;;;;5013619;28;20453;-67
2023/03/20 09:12:33;;;;;;;16.13;5.50;;;;;;;;;;5013205;28;20522;-67
2023/03/20 09:15:01;;;;;;;9.50;5.90;;;;;;;;;;5013233;28;20443;-67
2023/03/20 09:17:30;;;;;;;12.37;6.40;;;;;;;;;;5013429;28;20444;-67
2023/03/20 09:19:57;;;;;;;7.83;5.40;;;;;;;;;;5013278;28;20958;-67
2023/03/20 09:22:24;;;;;;;5.63;4.60;;;;;;;;;;5013496;28;20451;-66
2023/03/20 09:24:53;;;;;;;8.20;4.40;;;;;;;;;;5013025;28;20450;-67
2023/03/20 09:27:20;;;;;;;8.83;5.40;;;;;;;;;;5013418;28;20474;-67
2023/03/20 09:29:47;;;;;;;6.30;4.77;;;;;;;;;;5013377;28;20444;-66
2023/03/20 09:32:15;;;;;;;7.10;4.67;;;;;;;;;;5013616;28;20907;-66
2023/03/20 09:34:43;;;;;;;7.90;5.33;;;;;;;;;;5013079;28;20485;-67
2023/03/20 09:37:10;;;;;;;7.03;4.40;;;;;;;;;;5012960;28;20960;-67
2023/03/20 09:39:38;;;;;;;7.87;4.20;;;;;;;;;;5013379;28;20484;-67
2023/03/20 09:42:10;;;;;;;6.47;4.97;;;;;;;;;;5013137;28;20844;-67
2023/03/20 09:44:45;;;;;;;11.37;4.93;;;;;;;;;;5013438;28;20441;-67
2023/03/20 09:47:15;;;;;;;8.10;4.13;;;;;;;;;;5013292;28;20937;-66
2023/03/20 09:49:47;;;;;;;9.20;4.17;;;;;;;;;;5013402;28;20433;-67
2023/03/20 09:52:19;;;;;;;5.13;4.20;;;;;;;;;;5013391;28;20428;-67
2023/03/20 09:54:48;;;;;;;10.10;4.27;;;;;;;;;;5013326;28;20439;-67
2023/03/20 09:57:20;;;;;;;4.73;3.20;;;;;;;;;;5013230;28;20447;-67
2023/03/20 09:59:47;;;;;;;3.93;3.50;;;;;;;;;;5012800;28;20476;-67
2023/03/20 10:02:18;;;;;;;7.63;4.13;;;;;;;;;;5013195;28;20447;-67
2023/03/20 10:04:48;;;;;;;7.73;4.07;;;;;;;;;;5012973;28;20457;-67
2023/03/20 10:07:16;;;;;;;10.27;4.13;;;;;;;;;;5012788;28;20443;-67
2023/03/20 10:09:44;;;;;;;13.20;5.57;;;;;;;;;;5013851;28;20440;-67
2023/03/20 10:12:25;;;;;;;6.13;3.90;;;;;;;;;;5016730;28;20535;-67
2023/03/20 10:14:57;;;;;;;6.10;4.23;;;;;;;;;;5016835;28;20433;-68
2023/03/20 10:17:30;;;;;;;8.67;4.10;;;;;;;;;;5016824;28;20435;-67
2023/03/20 10:19:59;;;;;;;6.93;4.30;;;;;;;;;;5016284;28;20475;-67
2023/03/20 10:22:28;;;;;;;7.30;3.97;;;;;;;;;;5016840;28;20445;-67
2023/03/20 10:24:56;;;;;;;4.23;3.00;;;;;;;;;;5016360;28;20453;-67
2023/03/20 10:27:26;;;;;;;7.20;3.80;;;;;;;;;;5016683;28;20441;-67
2023/03/20 10:30:00;;;;;;;6.17;4.37;;;;;;;;;;5016302;28;20457;-67
2023/03/20 10:32:30;;;;;;;5.80;3.63;;;;;;;;;;5016161;28;20486;-67
2023/03/20 10:35:07;;;;;;;4.23;3.33;;;;;;;;;;5016040;28;20481;-67
2023/03/20 10:37:43;;;;;;;4.00;3.10;;;;;;;;;;5016825;28;20452;-67
2023/03/20 10:40:22;;;;;;;5.67;3.10;;;;;;;;;;5016316;28;20821;-67
2023/03/20 10:42:52;;;;;;;3.23;2.90;;;;;;;;;;5016722;28;20438;-67
2023/03/20 10:45:26;;;;;;;9.17;3.80;;;;;;;;;;5015789;28;20990;-67
2023/03/20 10:47:55;;;;;;;3.50;3.03;;;;;;;;;;5016217;28;20436;-67
2023/03/20 10:50:24;;;;;;;4.40;3.37;;;;;;;;;;5015950;28;20441;-67
2023/03/20 10:52:52;;;;;;;8.30;3.00;;;;;;;;;;5015631;28;20447;-66
2023/03/20 10:55:21;;;;;;;4.37;3.17;;;;;;;;;;5015798;28;20442;-67
2023/03/20 10:57:51;;;;;;;7.80;3.27;;;;;;;;;;5015420;28;20452;-68
2023/03/20 11:00:22;;;;;;;4.50;3.60;;;;;;;;;;5015902;28;20480;-66
2023/03/20 11:02:49;;;;;;;4.60;3.03;;;;;;;;;;5015606;28;20440;-68
2023/03/20 11:05:21;;;;;;;8.90;3.10;;;;;;;;;;5015779;28;20447;-67
2023/03/20 11:07:51;;;;;;;4.63;3.17;;;;;;;;;;5015892;28;20438;-66
2023/03/20 11:10:18;;;;;;;4.53;3.07;;;;;;;;;;5015576;28;20439;-67
2023/03/20 11:12:46;;;;;;;6.20;3.03;;;;;;;;;;5015455;28;21019;-66
2023/03/20 11:15:22;;;;;;;5.30;3.10;;;;;;;;;;5015168;28;20965;-66
2023/03/20 11:17:56;;;;;;;4.77;2.87;;;;;;;;;;5015664;28;20433;-67
2023/03/20 11:20:24;;;;;;;6.23;3.57;;;;;;;;;;5015310;28;20815;-67
2023/03/20 11:22:51;;;;;;;4.20;3.13;;;;;;;;;;5015199;28;20529;-67
2023/03/20 11:25:29;;;;;;;3.47;2.90;;;;;;;;;;5014924;28;20460;-67
2023/03/20 11:27:57;;;;;;;4.67;3.07;;;;;;;;;;5015414;28;20439;-67
2023/03/20 11:30:25;;;;;;;8.73;3.40;;;;;;;;;;5015226;28;20790;-67
2023/03/20 11:32:56;;;;;;;5.30;2.90;;;;;;;;;;5015126;28;20455;-67
2023/03/20 11:35:27;;;;;;;5.60;3.20;;;;;;;;;;5015047;28;20489;-67
2023/03/20 11:37:57;;;;;;;5.83;3.03;;;;;;;;;;5015238;28;20431;-68
2023/03/20 11:40:25;;;;;;;3.47;3.10;;;;;;;;;;5014609;28;20486;-68
2023/03/20 11:42:53;;;;;;;9.03;3.13;;;;;;;;;;5014721;28;20441;-67
2023/03/20 11:45:20;;;;;;;4.17;2.80;;;;;;;;;;5014767;28;20447;-67
2023/03/20 11:47:51;;;;;;;4.23;3.73;;;;;;;;;;5014681;28;20528;-68
2023/03/20 11:50:32;;;;;;;4.53;2.77;;;;;;;;;;5015120;28;20506;-68
2023/03/20 11:52:59;;;;;;;5.53;3.23;;;;;;;;;;5015214;28;20429;-68
2023/03/20 11:55:28;;;;;;;4.70;3.40;;;;;;;;;;5015026;28;20446;-67
2023/03/20 11:57:57;;;;;;;7.03;2.70;;;;;;;;;;5014994;28;20453;-67
2023/03/20 12:00:26;;;;;;;3.10;2.80;;;;;;;;;;5014156;28;20487;-67
2023/03/20 12:02:54;;;;;;;8.57;3.80;;;;;;;;;;5014699;28;20745;-67
2023/03/20 12:05:29;;;;;;;4.63;3.13;;;;;;;;;;5014765;28;20469;-67
2023/03/20 12:07:57;;;;;;;3.67;2.93;;;;;;;;;;5014743;28;20439;-67
2023/03/20 12:10:27;;;;;;;3.83;3.40;;;;;;;;;;5014168;28;20455;-67
2023/03/20 12:12:57;;;;;;;3.70;2.90;;;;;;;;;;5014278;28;20453;-67
2023/03/20 12:15:26;;;;;;;5.50;3.00;;;;;;;;;;5014751;28;20474;-67
2023/03/20 12:17:57;;;;;;;5.73;3.10;;;;;;;;;;5014249;28;20453;-68
2023/03/20 12:20:27;;;;;;;4.30;3.00;;;;;;;;;;5014222;28;20515;-68
2023/03/20 12:22:57;;;;;;;4.97;3.40;;;;;;;;;;5014012;28;20450;-68
2023/03/20 12:25:25;;;;;;;5.60;2.90;;;;;;;;;;5013883;28;20521;-67
2023/03/20 12:28:03;;;;;;;5.93;3.50;;;;;;;;;;5014183;28;20538;-68
2023/03/20 12:30:33;;;;;;;5.50;3.57;;;;;;;;;;5014202;28;20786;-67
2023/03/20 12:33:05;;;;;;;6.20;3.40;;;;;;;;;;5013919;28;20440;-68
2023/03/20 12:35:34;;;;;;;8.27;4.20;;;;;;;;;;5014184;28;20480;-67
2023/03/20 12:38:01;;;;;;;8.97;4.47;;;;;;;;;;5014280;28;20486;-67
2023/03/20 12:40:34;;;;;;;3.00;2.70;;;;;;;;;;5013651;28;20486;-67
2023/03/20 12:43:04;;;;;;;3.40;2.93;;;;;;;;;;5014462;28;20519;-67
2023/03/20 12:45:34;;;;;;;7.97;3.70;;;;;;;;;;5014405;28;20842;-68
2023/03/20 12:48:15;;;;;;;6.53;3.30;;;;;;;;;;5014615;28;20806;-67
2023/03/20 12:50:44;;;;;;;8.07;3.63;;;;;;;;;;5013942;28;20432;-68
2023/03/20 12:53:21;;;;;;;7.37;3.33;;;;;;;;;;5014509;28;20796;-67
2023/03/20 12:55:53;;;;;;;5.67;3.10;;;;;;;;;;5013452;28;20528;-67
2023/03/20 12:58:25;;;;;;;7.80;3.60;;;;;;;;;;5013434;28;20435;-67
2023/03/20 13:00:54;;;;;;;5.10;4.13;;;;;;;;;;5014013;28;20568;-67
2023/03/20 13:03:34;;;;;;;9.90;3.70;;;;;;;;;;5014124;28;20969;-67
2023/03/20 13:06:04;;;;;;;5.77;3.70;;;;;;;;;;5013796;28;20453;-67
2023/03/20 13:08:39;;;;;;;6.73;4.10;;;;;;;;;;5013675;28;20504;-67
2023/03/20 13:11:08;;;;;;;14.43;5.00;;;;;;;;;;5013773;28;20855;-67
2023/03/20 13:13:41;;;;;;;7.20;3.83;;;;;;;;;;5013402;28;20445;-67
2023/03/20 13:16:13;;;;;;;5.07;3.23;;;;;;;;;;5013292;28;20535;-67
2023/03/20 13:18:48;;;;;;;6.80;3.43;;;;;;;;;;5013741;28;20444;-67
2023/03/20 13:21:19;;;;;;;10.83;4.20;;;;;;;;;;5013909;28;20467;-67
2023/03/20 13:23:50;;;;;;;7.17;4.00;;;;;;;;;;5013550;28;20444;-67
2023/03/20 13:26:23;;;;;;;5.37;3.80;;;;;;;;;;5013698;28;20448;-67
2023/03/20 13:28:55;;;;;;;6.43;4.20;;;;;;;;;;5013343;28;20436;-67
2023/03/20 13:31:27;;;;;;;6.20;3.77;;;;;;;;;;5013930;28;20510;-67
2023/03/20 13:34:00;;;;;;;6.13;3.73;;;;;;;;;;5013622;28;20515;-67
2023/03/20 13:36:34;;;;;;;7.30;4.27;;;;;;;;;;5013017;28;20472;-66
2023/03/20 13:39:03;;;;;;;7.80;4.23;;;;;;;;;;5013111;28;20430;-67
2023/03/20 13:41:32;;;;;;;5.00;4.13;;;;;;;;;;5013280;28;20812;-67
2023/03/20 13:44:00;;;;;;;9.40;4.10;;;;;;;;;;5014727;28;21028;-66
2023/03/20 13:46:30;;;;;;;10.63;4.10;;;;;;;;;;5017068;28;20443;-67
2023/03/20 13:48:59;;;;;;;6.23;3.60;;;;;;;;;;5017686;28;20809;-67
2023/03/20 13:51:30;;;;;;;8.07;3.83;;;;;;;;;;5017075;28;20452;-67
2023/03/20 13:54:02;;;;;;;5.67;4.50;;;;;;;;;;5016575;28;20964;-67
2023/03/20 13:56:33;;;;;;;7.10;3.80;;;;;;;;;;5016667;28;20423;-67
2023/03/20 13:59:06;;;;;;;11.13;4.47;;;;;;;;;;5016972;28;20436;-67
2023/03/20 14:01:39;;;;;;;7.90;4.30;;;;;;;;;;5017137;28;20524;-67
2023/03/20 14:04:10;;;;;;;5.83;3.97;;;;;;;;;;5017176;28;20429;-67
2023/03/20 14:07:01;;;;;;;5.00;3.40;;;;;;;;;;5017209;28;20543;-67
2023/03/20 14:09:32;;;;;;;6.23;3.93;;;;;;;;;;5002251;28;20451;-67
2023/03/20 14:12:04;;;;;;;5.07;3.50;;;;;;;;;;5016750;28;20448;-67
2023/03/20 14:14:33;;;;;;;8.93;3.77;;;;;;;;;;5017308;28;20629;-67
2023/03/20 14:17:17;;;;;;;7.70;4.10;;;;;;;;;;5016549;28;20444;-67
2023/03/20 14:19:46;;;;;;;11.83;4.90;;;;;;;;;;5016366;28;20479;-67
2023/03/20 14:22:18;;;;;;;7.00;5.50;;;;;;;;;;5014674;28;20467;-67
2023/03/20 14:24:51;;;;;;;8.53;7.20;;;;;;;;;;5015800;28;20448;-67
2023/03/20 14:27:19;;;;;;;10.50;8.20;;;;;;;;;;5016390;28;20859;-67
2023/03/20 14:29:46;;;;;;;10.03;7.57;;;;;;;;;;5016624;28;20452;-67
2023/03/20 14:32:24;;;;;;;9.80;8.07;;;;;;;;;;5015797;28;20455;-67
2023/03/20 14:34:54;;;;;;;9.40;8.23;;;;;;;;;;5016130;28;20480;-67
2023/03/20 14:37:36;;;;;;;9.63;8.00;;;;;;;;;;5015846;28;20445;-67
2023/03/20 14:40:12;;;;;;;9.10;7.50;;;;;;;;;;5015913;28;20962;-67
2023/03/20 14:42:43;;;;;;;11.03;8.77;;;;;;;;;;5016327;28;20777;-67